Fleetwood, United Kingdom
Current Conditions -  °F | °C
As of 10:50 AM on Friday 28 Nov 2014 (Local Time) from EGNO Reporting Station
Scattered Clouds Scattered Clouds  
Wind Chill: 52°   Ceiling: Unl
Heat Index: 52°   Visibility: 5mi
Dew Point: 48°   Wind: 8mph
Humidity: 88%   Direction: 90°E
Pressure: 29.68"   Gusts: NA
Location:  53.92°N, 3.01°W
Report Text: EGNO 281050Z 09007KT 8000 FEW017 SCT033 11/09 Q1005
Loading
Personal Weather Stations






























Interactive Weather Map New forecast layout! Learn more

10-Day Weather Forecast

Advertisements
Track Severe Weather on mobile